Time;durP1;ratioP1;P1;durP2;ratioP2;P2;SDS_P1;SDS_P2;PMS_P1;PMS_P2;Temp;Humidity;BMP_temperature;BMP_pressure;BME280_temperature;BME280_humidity;BME280_pressure;Samples;Min_cycle;Max_cycle;Signal;HPM_P1;HPM_P2
2024/01/31 00:01:33;;;;;;;16.25;1.40;;;21.00;67.90;;;;;;5015565;28;20886;-81
2024/01/31 00:04:00;;;;;;;13.55;1.23;;;21.00;68.30;;;;;;5014000;28;20681;-81
2024/01/31 00:06:27;;;;;;;7.00;1.23;;;21.00;68.00;;;;;;5015930;28;21050;-78
2024/01/31 00:08:56;;;;;;;6.95;1.20;;;21.00;67.80;;;;;;5013224;28;20200;-80
2024/01/31 00:11:25;;;;;;;2.00;1.02;;;21.00;67.70;;;;;;5011701;28;20210;-81
2024/01/31 00:13:52;;;;;;;2.05;1.10;;;21.00;67.70;;;;;;5016017;28;20280;-81
2024/01/31 00:16:19;;;;;;;2.50;1.17;;;21.00;67.90;;;;;;5013800;28;20226;-80
2024/01/31 00:18:45;;;;;;;5.10;1.27;;;21.00;68.10;;;;;;5015529;28;20200;-81
2024/01/31 00:21:12;;;;;;;1.40;1.05;;;20.90;67.80;;;;;;5015871;28;20231;-80
2024/01/31 00:23:39;;;;;;;1.85;1.05;;;20.90;67.60;;;;;;5015072;28;20211;-80
2024/01/31 00:26:07;;;;;;;1.20;0.90;;;21.00;67.70;;;;;;5016618;28;21409;-80
2024/01/31 00:28:33;;;;;;;4.03;1.08;;;20.90;67.60;;;;;;5014922;28;20227;-80
2024/01/31 00:31:00;;;;;;;9.65;0.90;;;20.90;67.70;;;;;;5017218;28;20208;-80
2024/01/31 00:33:27;;;;;;;7.38;1.30;;;20.90;67.70;;;;;;5014284;28;20207;-80
2024/01/31 00:35:55;;;;;;;3.30;1.23;;;20.90;67.60;;;;;;5017767;28;20218;-79
2024/01/31 00:38:22;;;;;;;1.00;0.80;;;20.90;67.50;;;;;;5012318;28;20200;-80
2024/01/31 00:40:49;;;;;;;2.45;1.10;;;20.90;67.70;;;;;;5009655;28;20210;-80
2024/01/31 00:43:17;;;;;;;1.52;1.00;;;20.90;67.60;;;;;;5004421;28;20728;-80
2024/01/31 00:45:44;;;;;;;1.40;0.90;;;20.90;67.70;;;;;;5007984;28;20198;-80
2024/01/31 00:48:10;;;;;;;0.95;0.80;;;20.90;67.70;;;;;;5007500;28;20821;-81
2024/01/31 00:50:37;;;;;;;1.42;1.00;;;20.90;67.60;;;;;;5004965;28;20204;-80
2024/01/31 00:53:04;;;;;;;1.60;0.98;;;20.90;67.60;;;;;;5008893;28;20195;-80
2024/01/31 00:55:31;;;;;;;1.35;1.20;;;20.90;67.50;;;;;;5004170;28;20206;-80
2024/01/31 00:57:57;;;;;;;1.25;1.05;;;20.90;67.50;;;;;;5010766;28;20210;-80
2024/01/31 01:00:26;;;;;;;1.35;1.20;;;20.90;67.60;;;;;;5016273;28;20192;-80
2024/01/31 01:02:54;;;;;;;1.42;1.13;;;20.80;67.40;;;;;;5000149;28;20686;-80
2024/01/31 01:05:21;;;;;;;1.58;0.85;;;20.80;67.60;;;;;;5019082;28;20207;-81
2024/01/31 01:07:48;;;;;;;1.80;1.58;;;20.80;67.50;;;;;;5016389;28;20881;-80
2024/01/31 01:10:15;;;;;;;1.17;0.93;;;20.80;67.60;;;;;;5014411;28;20195;-81
2024/01/31 01:12:42;;;;;;;1.40;1.00;;;20.80;67.40;;;;;;4989972;28;20195;-81
2024/01/31 01:15:10;;;;;;;1.13;0.90;;;20.80;67.50;;;;;;4982955;28;20583;-81
2024/01/31 01:17:39;;;;;;;1.23;0.90;;;20.80;67.50;;;;;;5002269;28;20204;-80
2024/01/31 01:20:08;;;;;;;1.27;0.90;;;20.80;67.30;;;;;;5004523;28;20199;-80
2024/01/31 01:22:35;;;;;;;1.10;0.90;;;20.80;67.50;;;;;;5011624;28;20223;-80
2024/01/31 01:25:02;;;;;;;1.10;1.00;;;20.80;67.50;;;;;;5006555;28;20774;-81
2024/01/31 01:27:28;;;;;;;2.80;1.20;;;20.80;67.70;;;;;;5006818;28;20210;-79
2024/01/31 01:29:55;;;;;;;1.30;1.10;;;20.80;67.50;;;;;;5008715;28;21183;-80
2024/01/31 01:32:22;;;;;;;1.35;1.05;;;20.80;67.40;;;;;;5004673;28;20192;-80
2024/01/31 01:34:50;;;;;;;2.28;1.65;;;20.70;67.40;;;;;;5006781;28;20756;-81
2024/01/31 01:37:16;;;;;;;1.08;0.98;;;20.70;67.40;;;;;;5005261;28;20199;-79
2024/01/31 01:39:45;;;;;;;5.75;1.95;;;20.70;67.40;;;;;;5009652;28;20199;-80
2024/01/31 01:42:12;;;;;;;1.55;0.90;;;20.70;67.40;;;;;;5009645;28;20686;-81
2024/01/31 01:44:45;;;;;;;1.60;1.42;;;20.70;67.30;;;;;;5008142;28;20204;-80
2024/01/31 01:47:14;;;;;;;1.63;1.33;;;20.70;67.50;;;;;;5004718;28;20295;-80
2024/01/31 01:49:41;;;;;;;2.00;1.10;;;20.70;67.60;;;;;;5008286;28;22947;-80
2024/01/31 01:52:12;;;;;;;1.20;1.00;;;20.70;67.40;;;;;;5006733;28;20262;-80
2024/01/31 01:54:39;;;;;;;1.02;0.80;;;20.70;67.40;;;;;;5008847;28;21090;-81
2024/01/31 01:57:06;;;;;;;2.45;1.00;;;20.70;67.30;;;;;;4996127;28;20203;-81
2024/01/31 01:59:34;;;;;;;2.20;1.05;;;20.70;67.50;;;;;;5006242;28;20215;-81
2024/01/31 02:02:02;;;;;;;1.00;0.77;;;20.70;67.30;;;;;;5006415;28;20655;-80
2024/01/31 02:04:29;;;;;;;1.75;1.02;;;20.70;67.30;;;;;;5005773;28;20203;-81
2024/01/31 02:06:56;;;;;;;1.25;0.90;;;20.60;67.20;;;;;;5012049;28;20205;-83
2024/01/31 02:09:26;;;;;;;1.98;0.80;;;20.60;67.30;;;;;;5016407;28;20203;-81
2024/01/31 02:11:53;;;;;;;1.00;0.80;;;20.60;67.40;;;;;;5017530;28;20307;-81
2024/01/31 02:14:19;;;;;;;1.20;1.08;;;20.60;67.60;;;;;;5017483;28;20700;-81
2024/01/31 02:16:46;;;;;;;1.10;0.90;;;20.60;67.30;;;;;;5015171;28;20204;-81
2024/01/31 02:19:13;;;;;;;1.20;1.02;;;20.60;67.30;;;;;;5016773;28;20200;-80
2024/01/31 02:21:43;;;;;;;1.00;0.80;;;20.60;67.30;;;;;;5014647;28;20204;-81
2024/01/31 02:24:11;;;;;;;1.00;0.80;;;20.60;67.50;;;;;;5017663;28;20219;-80
2024/01/31 02:26:38;;;;;;;1.10;1.00;;;20.60;67.30;;;;;;5016521;28;20207;-80
2024/01/31 02:29:04;;;;;;;1.20;1.00;;;20.60;67.30;;;;;;5010375;28;20763;-80
2024/01/31 02:31:31;;;;;;;1.20;0.90;;;20.60;67.40;;;;;;5004477;28;20319;-80
2024/01/31 02:33:58;;;;;;;1.47;0.93;;;20.60;67.50;;;;;;5011778;28;20679;-80
2024/01/31 02:36:25;;;;;;;1.00;0.85;;;20.60;67.30;;;;;;5013168;28;20223;-81
2024/01/31 02:38:51;;;;;;;1.00;0.80;;;20.60;67.30;;;;;;5007202;28;21026;-80
2024/01/31 02:41:19;;;;;;;1.00;0.80;;;20.60;67.30;;;;;;5007293;28;20218;-80
2024/01/31 02:43:46;;;;;;;1.17;1.02;;;20.60;67.20;;;;;;5012832;28;20246;-79
2024/01/31 02:46:13;;;;;;;1.13;1.00;;;20.60;67.50;;;;;;5016441;28;20212;-80
2024/01/31 02:48:39;;;;;;;1.10;0.90;;;20.60;67.30;;;;;;5013529;28;20246;-80
2024/01/31 02:51:06;;;;;;;0.98;0.77;;;20.60;67.40;;;;;;5008095;28;20211;-80
2024/01/31 02:53:33;;;;;;;1.40;0.90;;;20.60;67.60;;;;;;5000069;28;21142;-80
2024/01/31 02:56:00;;;;;;;1.60;1.20;;;20.60;67.40;;;;;;5005983;28;20200;-80
2024/01/31 02:58:28;;;;;;;1.20;1.10;;;20.60;67.40;;;;;;5008699;28;20200;-80
2024/01/31 03:00:54;;;;;;;1.67;1.00;;;20.60;67.30;;;;;;5003633;28;20233;-81
2024/01/31 03:03:21;;;;;;;1.30;0.90;;;20.50;67.30;;;;;;5001648;28;20734;-80
2024/01/31 03:05:48;;;;;;;1.02;0.80;;;20.50;67.30;;;;;;5006528;28;20652;-81
2024/01/31 03:08:15;;;;;;;1.20;0.85;;;20.50;67.40;;;;;;5005459;28;20200;-80
2024/01/31 03:10:44;;;;;;;1.20;0.80;;;20.50;67.40;;;;;;5005986;28;20200;-81
2024/01/31 03:13:14;;;;;;;1.35;1.08;;;20.50;67.50;;;;;;5011360;28;20780;-80
2024/01/31 03:15:42;;;;;;;1.00;0.80;;;20.50;67.20;;;;;;5013044;28;20203;-80
2024/01/31 03:18:09;;;;;;;1.10;0.80;;;20.50;67.30;;;;;;5004886;28;20218;-80
2024/01/31 03:20:36;;;;;;;0.90;0.80;;;20.50;67.30;;;;;;5007010;28;20218;-80
2024/01/31 03:23:02;;;;;;;1.20;0.90;;;20.50;67.30;;;;;;5004738;28;20230;-80
2024/01/31 03:25:29;;;;;;;0.90;0.70;;;20.50;67.30;;;;;;4999732;28;20207;-80
2024/01/31 03:27:56;;;;;;;1.00;0.70;;;20.50;67.40;;;;;;5005146;28;20763;-80
2024/01/31 03:30:22;;;;;;;1.08;0.88;;;20.50;67.20;;;;;;5005577;28;20214;-80
2024/01/31 03:32:51;;;;;;;1.10;0.98;;;20.50;67.50;;;;;;5001858;28;20793;-80
2024/01/31 03:35:17;;;;;;;1.30;1.00;;;20.50;67.30;;;;;;5003729;28;20575;-80
2024/01/31 03:37:45;;;;;;;1.00;0.70;;;20.50;67.30;;;;;;5007749;28;20196;-80
2024/01/31 03:40:12;;;;;;;1.30;0.80;;;20.50;67.50;;;;;;5007019;28;20361;-80
2024/01/31 03:42:39;;;;;;;1.08;0.80;;;20.50;67.30;;;;;;5008465;28;21138;-80
2024/01/31 03:45:06;;;;;;;1.40;1.00;;;20.50;67.30;;;;;;5004403;28;20211;-81
2024/01/31 03:47:35;;;;;;;1.27;0.90;;;20.50;67.30;;;;;;5002464;28;20570;-80
2024/01/31 03:50:05;;;;;;;0.90;0.70;;;20.50;67.40;;;;;;5006659;28;20832;-80
2024/01/31 03:52:32;;;;;;;1.38;0.90;;;20.50;67.40;;;;;;5002632;28;20204;-80
2024/01/31 03:55:01;;;;;;;1.00;0.80;;;20.40;67.40;;;;;;5005331;28;20243;-80
2024/01/31 03:57:28;;;;;;;1.05;0.82;;;20.40;67.30;;;;;;5006213;28;20638;-80
2024/01/31 03:59:54;;;;;;;1.00;0.80;;;20.40;67.20;;;;;;4991751;28;20214;-80
2024/01/31 04:02:23;;;;;;;1.00;0.80;;;20.40;67.20;;;;;;5005160;28;20572;-80
2024/01/31 04:04:49;;;;;;;1.70;0.77;;;20.40;67.30;;;;;;5007529;28;20219;-80
2024/01/31 04:07:17;;;;;;;1.13;0.90;;;20.40;67.10;;;;;;5013216;28;20206;-80
2024/01/31 04:09:44;;;;;;;1.30;1.00;;;20.40;67.30;;;;;;5015556;28;20215;-80
2024/01/31 04:12:11;;;;;;;1.85;0.90;;;20.40;67.30;;;;;;5015894;28;20570;-80
2024/01/31 04:14:37;;;;;;;1.40;1.00;;;20.40;67.30;;;;;;5011183;28;20203;-80
2024/01/31 04:17:04;;;;;;;1.00;0.90;;;20.40;67.40;;;;;;5005665;28;20199;-80
2024/01/31 04:19:31;;;;;;;1.05;0.80;;;20.40;67.30;;;;;;5009595;28;20214;-80
2024/01/31 04:21:58;;;;;;;1.10;0.80;;;20.40;67.20;;;;;;5014104;28;20775;-79
2024/01/31 04:24:26;;;;;;;1.05;0.70;;;20.40;67.40;;;;;;5013328;28;20231;-79
2024/01/31 04:26:53;;;;;;;1.00;0.80;;;20.40;67.10;;;;;;5014482;28;20879;-80
2024/01/31 04:29:20;;;;;;;0.90;0.80;;;20.40;67.20;;;;;;5015234;28;20242;-79
2024/01/31 04:31:51;;;;;;;0.90;0.77;;;20.40;67.20;;;;;;5013787;28;20909;-80
2024/01/31 04:34:18;;;;;;;1.00;0.80;;;20.40;67.30;;;;;;5012256;28;20200;-80
2024/01/31 04:36:45;;;;;;;1.00;0.82;;;20.40;67.40;;;;;;5011127;28;20859;-80
2024/01/31 04:39:11;;;;;;;1.10;0.90;;;20.40;67.20;;;;;;5012885;28;20202;-80
2024/01/31 04:41:40;;;;;;;1.15;0.90;;;20.40;67.10;;;;;;5004062;28;21282;-79
2024/01/31 04:44:07;;;;;;;1.20;0.90;;;20.40;67.30;;;;;;5002775;28;20224;-80
2024/01/31 04:46:34;;;;;;;1.30;1.08;;;20.40;67.30;;;;;;5003254;28;20715;-80
2024/01/31 04:49:01;;;;;;;1.00;0.80;;;20.40;67.20;;;;;;5002803;28;20233;-80
2024/01/31 04:51:28;;;;;;;1.10;1.00;;;20.40;67.20;;;;;;5004615;28;20207;-80
2024/01/31 04:53:54;;;;;;;0.90;0.80;;;20.40;67.50;;;;;;5002673;28;20222;-80
2024/01/31 04:56:21;;;;;;;1.00;0.80;;;20.40;67.40;;;;;;5005558;28;20200;-80
2024/01/31 04:58:49;;;;;;;1.00;0.77;;;20.40;67.30;;;;;;5001630;28;20204;-80
2024/01/31 05:01:16;;;;;;;1.10;0.93;;;20.40;67.30;;;;;;4999868;28;20211;-80
2024/01/31 05:03:43;;;;;;;0.90;0.75;;;20.30;67.00;;;;;;5004464;28;20230;-80
2024/01/31 05:06:11;;;;;;;0.95;0.80;;;20.30;67.30;;;;;;5004112;28;20200;-80
2024/01/31 05:08:37;;;;;;;1.00;0.80;;;20.30;67.20;;;;;;5003793;28;20243;-80
2024/01/31 05:11:04;;;;;;;0.90;0.75;;;20.40;67.20;;;;;;5001103;28;20219;-81
2024/01/31 05:13:32;;;;;;;1.10;0.80;;;20.40;67.30;;;;;;5003504;28;20665;-80
2024/01/31 05:16:00;;;;;;;1.05;0.80;;;20.40;67.30;;;;;;5005359;28;20210;-81
2024/01/31 05:18:26;;;;;;;1.02;0.80;;;20.30;67.20;;;;;;5003543;28;20207;-80
2024/01/31 05:20:53;;;;;;;1.00;0.90;;;20.30;67.10;;;;;;5004817;28;20574;-80
2024/01/31 05:23:20;;;;;;;1.00;0.70;;;20.30;67.10;;;;;;5004985;28;20216;-80
2024/01/31 05:25:47;;;;;;;0.90;0.70;;;20.30;67.00;;;;;;5005824;28;20200;-80
2024/01/31 05:28:13;;;;;;;1.40;0.90;;;20.30;67.10;;;;;;5004210;28;20216;-80
2024/01/31 05:30:40;;;;;;;1.00;0.90;;;20.30;67.20;;;;;;5007684;28;20235;-81
2024/01/31 05:33:08;;;;;;;1.65;0.93;;;20.30;67.10;;;;;;5004695;28;20212;-81
2024/01/31 05:35:36;;;;;;;1.00;0.70;;;20.30;67.20;;;;;;5005665;28;20595;-80
2024/01/31 05:38:02;;;;;;;1.02;0.90;;;20.30;67.30;;;;;;4989377;28;20201;-80
2024/01/31 05:40:30;;;;;;;1.00;0.80;;;20.30;67.30;;;;;;5004311;28;21199;-80
2024/01/31 05:42:57;;;;;;;1.00;0.80;;;20.30;67.10;;;;;;4992084;28;21001;-80
2024/01/31 05:45:23;;;;;;;0.90;0.80;;;20.30;67.10;;;;;;5005662;28;20657;-80
2024/01/31 05:47:50;;;;;;;0.90;0.70;;;20.30;67.10;;;;;;5004181;28;20203;-80
2024/01/31 05:50:19;;;;;;;1.05;0.80;;;20.30;68.10;;;;;;5003374;28;20562;-80
2024/01/31 05:52:45;;;;;;;1.00;0.80;;;20.30;67.20;;;;;;5005167;28;20204;-80
2024/01/31 05:55:14;;;;;;;1.05;0.95;;;20.30;67.10;;;;;;5003904;28;20204;-79
2024/01/31 05:57:41;;;;;;;1.60;0.88;;;20.30;67.30;;;;;;5008236;28;20208;-80
2024/01/31 06:00:10;;;;;;;0.98;0.70;;;20.30;67.10;;;;;;5001123;28;20208;-79
2024/01/31 06:02:37;;;;;;;1.17;0.90;;;20.30;67.30;;;;;;5006091;28;20210;-78
2024/01/31 06:05:05;;;;;;;1.10;0.77;;;20.30;67.50;;;;;;5010114;28;22355;-79
2024/01/31 06:07:33;;;;;;;1.27;0.90;;;20.30;67.20;;;;;;5015067;28;20203;-80
2024/01/31 06:10:00;;;;;;;1.00;0.80;;;20.30;67.10;;;;;;5015748;28;20204;-79
2024/01/31 06:12:27;;;;;;;1.00;0.88;;;20.30;67.10;;;;;;5016896;28;20651;-79
2024/01/31 06:14:54;;;;;;;1.20;0.80;;;20.30;67.80;;;;;;5015752;28;20207;-78
2024/01/31 06:17:20;;;;;;;6.93;1.08;;;20.30;67.50;;;;;;5014830;28;20678;-83
2024/01/31 06:19:48;;;;;;;1.40;0.90;;;20.30;67.70;;;;;;5015304;28;20200;-81
2024/01/31 06:22:14;;;;;;;5.63;0.82;;;20.30;68.50;;;;;;5015669;28;20564;-81
2024/01/31 06:24:42;;;;;;;3.63;0.88;;;20.30;68.20;;;;;;5005194;28;20219;-80
2024/01/31 06:27:09;;;;;;;11.90;1.00;;;20.40;68.10;;;;;;5018445;28;20242;-78
2024/01/31 06:29:39;;;;;;;1.05;0.90;;;20.40;68.20;;;;;;5015701;28;20214;-81
2024/01/31 06:32:07;;;;;;;12.10;1.20;;;20.30;68.20;;;;;;5020152;28;20208;-80
2024/01/31 06:34:34;;;;;;;3.00;1.30;;;20.30;67.90;;;;;;5019802;28;20893;-79
2024/01/31 06:37:01;;;;;;;2.85;1.30;;;20.20;65.00;;;;;;5024690;28;20207;-80
2024/01/31 06:39:28;;;;;;;2.95;1.20;;;20.20;66.30;;;;;;5026559;28;20216;-79
2024/01/31 06:41:56;;;;;;;1.90;0.80;;;20.20;66.60;;;;;;5013739;28;20687;-80
2024/01/31 06:44:22;;;;;;;2.13;0.80;;;20.20;66.80;;;;;;5014925;28;20224;-80
2024/01/31 06:46:50;;;;;;;1.27;0.93;;;20.20;66.80;;;;;;5015705;28;20686;-80
2024/01/31 06:49:17;;;;;;;1.35;0.90;;;20.20;66.70;;;;;;4998300;28;20555;-80
2024/01/31 06:51:43;;;;;;;1.70;0.90;;;20.20;66.70;;;;;;5018723;28;20682;-80
2024/01/31 06:54:12;;;;;;;1.70;0.80;;;20.20;66.70;;;;;;5006762;28;20200;-81
2024/01/31 06:56:38;;;;;;;1.70;0.85;;;20.20;66.90;;;;;;5007528;28;20757;-81
2024/01/31 06:59:06;;;;;;;1.00;0.70;;;20.20;67.00;;;;;;5006756;28;20206;-79
2024/01/31 07:01:33;;;;;;;1.05;0.85;;;20.30;66.90;;;;;;5014562;28;20246;-81
2024/01/31 07:04:00;;;;;;;7.10;0.80;;;20.20;66.80;;;;;;5016152;28;20246;-81
2024/01/31 07:06:27;;;;;;;1.45;0.90;;;20.20;67.00;;;;;;5013776;28;21375;-81
2024/01/31 07:08:53;;;;;;;2.45;1.00;;;20.20;67.00;;;;;;5021739;28;20200;-81
2024/01/31 07:11:20;;;;;;;1.75;0.80;;;20.20;66.80;;;;;;5021601;28;20214;-80
2024/01/31 07:13:47;;;;;;;1.20;0.80;;;20.20;66.90;;;;;;5021203;28;20249;-78
2024/01/31 07:16:15;;;;;;;1.40;0.90;;;20.20;66.90;;;;;;5018750;28;20306;-80
2024/01/31 07:18:43;;;;;;;1.20;0.93;;;20.20;67.00;;;;;;5014544;28;20204;-81
2024/01/31 07:21:10;;;;;;;1.38;0.80;;;20.20;67.00;;;;;;5019968;28;22992;-81
2024/01/31 07:23:37;;;;;;;1.30;0.80;;;20.20;67.10;;;;;;5021173;28;20211;-81
2024/01/31 07:26:04;;;;;;;1.85;0.88;;;20.20;67.30;;;;;;5018020;28;20203;-81
2024/01/31 07:28:36;;;;;;;1.52;0.82;;;20.20;67.30;;;;;;5018243;28;20218;-80
2024/01/31 07:31:05;;;;;;;1.10;0.90;;;20.20;67.40;;;;;;5012625;28;20204;-79
2024/01/31 07:33:33;;;;;;;1.00;0.80;;;20.20;67.40;;;;;;5010619;28;20258;-79
2024/01/31 07:36:02;;;;;;;1.35;0.85;;;20.20;67.60;;;;;;5013724;28;20203;-79
2024/01/31 07:38:28;;;;;;;1.00;0.80;;;20.20;67.30;;;;;;5015009;28;20271;-80
2024/01/31 07:40:55;;;;;;;1.45;0.80;;;20.30;67.60;;;;;;5018568;28;20200;-80
2024/01/31 07:43:22;;;;;;;1.10;0.80;;;20.30;67.40;;;;;;5016393;28;20207;-80
2024/01/31 07:45:48;;;;;;;1.10;0.90;;;20.30;67.30;;;;;;5020389;28;20746;-80
2024/01/31 07:48:15;;;;;;;2.65;0.80;;;20.30;67.20;;;;;;5020890;28;20210;-80
2024/01/31 07:50:44;;;;;;;1.00;0.73;;;20.30;67.30;;;;;;5021901;28;20665;-81
2024/01/31 07:53:10;;;;;;;1.10;0.80;;;20.30;67.30;;;;;;5020136;28;22541;-79
2024/01/31 07:55:37;;;;;;;1.60;1.10;;;20.40;67.60;;;;;;5010893;28;20208;-79
2024/01/31 07:58:04;;;;;;;3.75;1.80;;;20.30;66.00;;;;;;5007626;28;20200;-78
2024/01/31 08:00:31;;;;;;;1.45;1.00;;;20.20;66.70;;;;;;4984018;28;20794;-79
2024/01/31 08:02:58;;;;;;;1.10;0.80;;;20.30;66.80;;;;;;5009231;28;21066;-79
2024/01/31 08:05:25;;;;;;;1.90;0.80;;;20.30;66.70;;;;;;5010345;28;20224;-79
2024/01/31 08:07:53;;;;;;;1.55;0.90;;;20.40;66.70;;;;;;5009441;28;20202;-78
2024/01/31 08:10:20;;;;;;;1.20;0.90;;;20.40;66.50;;;;;;5006547;28;20199;-78
2024/01/31 08:12:48;;;;;;;1.25;0.95;;;20.40;66.50;;;;;;5008964;28;20205;-79
2024/01/31 08:15:15;;;;;;;1.40;1.00;;;20.40;66.40;;;;;;5006227;28;21012;-79
2024/01/31 08:17:42;;;;;;;5.57;1.00;;;20.40;66.40;;;;;;5010700;28;20215;-79
2024/01/31 08:20:10;;;;;;;3.15;1.00;;;20.50;66.50;;;;;;5010165;28;20204;-80
2024/01/31 08:22:37;;;;;;;1.50;0.73;;;20.50;66.40;;;;;;5010094;28;20228;-79
2024/01/31 08:25:06;;;;;;;2.63;1.00;;;20.50;66.30;;;;;;5008233;28;20231;-79
2024/01/31 08:27:32;;;;;;;1.40;0.73;;;20.50;66.30;;;;;;5005150;28;20216;-78
2024/01/31 08:29:59;;;;;;;1.23;0.85;;;20.60;66.30;;;;;;5006815;28;20212;-79
2024/01/31 08:32:26;;;;;;;0.82;0.60;;;20.60;66.40;;;;;;5007492;28;20231;-79
2024/01/31 08:34:53;;;;;;;1.25;0.80;;;20.60;66.30;;;;;;5011592;28;20207;-78
2024/01/31 08:37:19;;;;;;;1.10;0.90;;;20.60;66.30;;;;;;5010337;28;20200;-79
2024/01/31 08:39:46;;;;;;;1.65;0.80;;;20.60;66.30;;;;;;5010835;28;21621;-79
2024/01/31 08:42:14;;;;;;;0.90;0.70;;;20.60;66.30;;;;;;5010648;28;20215;-79
2024/01/31 08:44:41;;;;;;;1.42;0.98;;;20.60;66.20;;;;;;5007200;28;20227;-78
2024/01/31 08:47:08;;;;;;;1.20;0.90;;;20.60;66.20;;;;;;5007767;28;20228;-80
2024/01/31 08:49:35;;;;;;;2.00;0.85;;;20.60;66.20;;;;;;5009480;28;20246;-80
2024/01/31 08:52:01;;;;;;;1.10;0.80;;;20.60;66.30;;;;;;5020314;28;20220;-80
2024/01/31 08:54:28;;;;;;;1.00;0.70;;;20.60;66.40;;;;;;5023833;28;20293;-80
2024/01/31 08:56:55;;;;;;;1.25;0.80;;;20.60;66.60;;;;;;5024865;28;20223;-80
2024/01/31 08:59:23;;;;;;;1.20;1.00;;;20.60;66.70;;;;;;5024395;28;20273;-80
2024/01/31 09:01:50;;;;;;;1.35;1.02;;;20.60;67.00;;;;;;5025273;28;20218;-81
2024/01/31 09:04:17;;;;;;;1.13;1.00;;;20.60;67.00;;;;;;5014516;28;20203;-80
2024/01/31 09:06:44;;;;;;;4.03;0.85;;;20.60;67.10;;;;;;5024868;28;20212;-80
2024/01/31 09:09:10;;;;;;;2.95;1.08;;;20.70;67.60;;;;;;5024603;28;20205;-80
2024/01/31 09:11:37;;;;;;;1.27;1.00;;;20.70;67.70;;;;;;5024583;28;20206;-79
2024/01/31 09:14:04;;;;;;;1.35;1.00;;;20.70;67.80;;;;;;5023369;28;20659;-80
2024/01/31 09:16:33;;;;;;;2.22;1.02;;;20.70;68.10;;;;;;5019537;28;20207;-80
2024/01/31 09:19:00;;;;;;;1.50;1.10;;;20.70;68.20;;;;;;5022445;28;20195;-80
2024/01/31 09:21:27;;;;;;;1.10;0.80;;;20.80;68.50;;;;;;5023481;28;20230;-80
2024/01/31 09:23:53;;;;;;;1.48;1.08;;;20.80;68.50;;;;;;5023186;28;20207;-80
2024/01/31 09:26:20;;;;;;;3.05;1.38;;;20.80;68.60;;;;;;5023871;28;20232;-80
2024/01/31 09:28:47;;;;;;;2.65;1.10;;;20.80;68.80;;;;;;5026226;28;20218;-79
2024/01/31 09:31:21;;;;;;;1.52;1.10;;;20.80;68.90;;;;;;5026465;28;20873;-80
2024/01/31 09:33:49;;;;;;;1.60;1.17;;;20.80;69.20;;;;;;5021161;28;22255;-80
2024/01/31 09:36:15;;;;;;;1.30;1.17;;;20.80;69.40;;;;;;5029973;28;20195;-80
2024/01/31 09:38:43;;;;;;;1.95;1.27;;;20.90;69.40;;;;;;5026747;28;20200;-81
2024/01/31 09:41:10;;;;;;;4.10;1.70;;;20.90;69.80;;;;;;5020588;28;20200;-81
2024/01/31 09:43:37;;;;;;;1.92;1.50;;;20.90;69.90;;;;;;5028847;28;20211;-81
2024/01/31 09:46:05;;;;;;;2.25;1.05;;;20.90;70.30;;;;;;5030340;28;20219;-80
2024/01/31 09:48:33;;;;;;;1.70;1.20;;;20.90;70.60;;;;;;5027706;28;20206;-80
2024/01/31 09:51:02;;;;;;;2.17;1.60;;;20.80;70.90;;;;;;5023656;28;20205;-80
2024/01/31 09:53:33;;;;;;;2.08;1.30;;;20.80;71.20;;;;;;5029599;28;21095;-80
2024/01/31 09:56:00;;;;;;;2.85;1.45;;;20.80;71.60;;;;;;5022107;28;20188;-80
2024/01/31 09:58:27;;;;;;;2.20;1.70;;;20.80;71.70;;;;;;5011328;28;20212;-80
2024/01/31 10:00:56;;;;;;;2.53;1.58;;;20.80;71.00;;;;;;5017366;28;20291;-80
2024/01/31 10:03:23;;;;;;;2.08;1.33;;;20.80;71.20;;;;;;5016858;28;20686;-80
2024/01/31 10:05:49;;;;;;;1.75;1.20;;;20.80;70.90;;;;;;5022189;28;20219;-79
2024/01/31 10:08:17;;;;;;;2.40;1.40;;;20.80;71.00;;;;;;5016617;28;20212;-80
2024/01/31 10:10:44;;;;;;;2.40;1.27;;;20.80;71.50;;;;;;5021570;28;20204;-80
2024/01/31 10:13:11;;;;;;;1.38;1.20;;;20.80;71.10;;;;;;5026414;28;20211;-80
2024/01/31 10:15:37;;;;;;;2.47;1.50;;;20.80;71.40;;;;;;5024121;28;20200;-80
2024/01/31 10:18:06;;;;;;;1.55;1.08;;;20.80;71.40;;;;;;5022450;28;20689;-80
2024/01/31 10:20:33;;;;;;;2.42;1.40;;;20.90;71.00;;;;;;5023423;28;20658;-80
2024/01/31 10:23:00;;;;;;;1.60;1.20;;;20.90;71.10;;;;;;5019685;28;20693;-80
2024/01/31 10:25:28;;;;;;;1.75;1.25;;;20.90;71.20;;;;;;5021853;28;20212;-80
2024/01/31 10:27:55;;;;;;;3.15;1.45;;;20.90;71.20;;;;;;5021798;28;20219;-80
2024/01/31 10:30:21;;;;;;;5.20;1.55;;;20.90;71.50;;;;;;5020819;28;20200;-80
2024/01/31 10:32:49;;;;;;;4.90;1.42;;;20.90;71.20;;;;;;5023697;28;20804;-79
2024/01/31 10:35:16;;;;;;;3.38;1.40;;;20.90;71.40;;;;;;5015349;28;20318;-80
2024/01/31 10:37:43;;;;;;;6.88;2.00;;;20.90;70.90;;;;;;5023652;28;20200;-80
2024/01/31 10:40:10;;;;;;;8.52;3.38;;;20.90;71.20;;;;;;5019270;28;20211;-80
2024/01/31 10:42:39;;;;;;;11.77;4.55;;;20.90;71.10;;;;;;5013506;28;20207;-80
2024/01/31 10:45:07;;;;;;;9.23;4.47;;;20.90;71.10;;;;;;5022762;28;20234;-80
2024/01/31 10:47:33;;;;;;;12.55;6.35;;;20.90;70.90;;;;;;5024205;28;20466;-79
2024/01/31 10:50:02;;;;;;;11.07;6.65;;;21.00;71.20;;;;;;5025576;28;20796;-80
2024/01/31 10:52:33;;;;;;;9.88;7.00;;;21.00;71.10;;;;;;5023526;28;20218;-80
2024/01/31 10:55:02;;;;;;;18.55;11.10;;;20.90;71.20;;;;;;5024146;28;20192;-80
2024/01/31 10:57:30;;;;;;;20.33;12.10;;;21.00;71.00;;;;;;5023699;28;20207;-80
2024/01/31 10:59:59;;;;;;;19.85;12.82;;;21.00;71.00;;;;;;5021325;28;20204;-80
2024/01/31 11:02:29;;;;;;;21.58;13.00;;;21.00;71.00;;;;;;5022918;28;20200;-80
2024/01/31 11:04:59;;;;;;;19.75;12.60;;;21.00;71.00;;;;;;5022465;28;20204;-80
2024/01/31 11:07:26;;;;;;;27.70;15.40;;;21.00;71.00;;;;;;5017518;28;20243;-80
2024/01/31 11:09:54;;;;;;;25.48;17.30;;;21.00;71.00;;;;;;5019596;28;20201;-81
2024/01/31 11:12:21;;;;;;;27.33;18.48;;;21.00;71.40;;;;;;5013720;28;20206;-80
2024/01/31 11:14:50;;;;;;;36.22;21.13;;;21.00;71.10;;;;;;5008860;28;20211;-82
2024/01/31 11:17:22;;;;;;;31.10;20.80;;;21.00;71.60;;;;;;5018321;28;20203;-81
2024/01/31 11:19:52;;;;;;;32.22;19.20;;;20.90;70.90;;;;;;5012315;28;20207;-81
2024/01/31 11:22:19;;;;;;;33.85;20.65;;;20.90;71.10;;;;;;5014846;28;20787;-80
2024/01/31 11:24:47;;;;;;;33.92;20.75;;;20.90;71.10;;;;;;5012109;28;20204;-80
2024/01/31 11:27:14;;;;;;;34.15;19.33;;;20.90;71.40;;;;;;5015317;28;20666;-80
2024/01/31 11:29:42;;;;;;;31.67;22.23;;;20.90;71.10;;;;;;5017767;28;20195;-80
2024/01/31 11:32:09;;;;;;;32.70;19.52;;;20.90;71.20;;;;;;5015387;28;20212;-80
2024/01/31 11:34:37;;;;;;;28.40;19.10;;;20.90;71.00;;;;;;5017391;28;21865;-80
2024/01/31 11:37:04;;;;;;;29.70;18.42;;;20.90;71.00;;;;;;5020410;28;20200;-80
2024/01/31 11:39:31;;;;;;;30.80;19.08;;;20.90;70.90;;;;;;5015780;28;20203;-81
2024/01/31 11:41:58;;;;;;;30.17;16.75;;;20.90;71.00;;;;;;5005723;28;20218;-80
2024/01/31 11:44:25;;;;;;;31.77;17.23;;;20.90;70.90;;;;;;5017506;28;20216;-81
2024/01/31 11:46:53;;;;;;;26.25;15.52;;;20.90;70.70;;;;;;5011673;28;20702;-82
2024/01/31 11:49:19;;;;;;;24.50;15.65;;;20.90;70.60;;;;;;5008167;28;20200;-82
2024/01/31 11:51:48;;;;;;;28.65;16.55;;;20.90;70.60;;;;;;5015078;28;20196;-81
2024/01/31 11:54:17;;;;;;;27.48;16.00;;;20.90;70.70;;;;;;5013005;28;20199;-86
2024/01/31 11:56:44;;;;;;;20.35;14.85;;;20.90;70.90;;;;;;5010843;28;20203;-84
2024/01/31 11:59:11;;;;;;;25.42;16.30;;;20.90;70.70;;;;;;5015520;28;20205;-87
2024/01/31 12:01:38;;;;;;;23.23;15.45;;;20.90;71.40;;;;;;5017017;28;20204;-90
2024/01/31 12:04:06;;;;;;;22.35;14.15;;;20.90;71.10;;;;;;5014780;28;20211;-89
2024/01/31 12:06:32;;;;;;;22.67;14.18;;;21.00;71.20;;;;;;5017648;28;20228;-89
2024/01/31 12:09:01;;;;;;;24.35;12.70;;;21.00;71.40;;;;;;5012945;28;20196;-89
2024/01/31 12:11:28;;;;;;;26.15;15.02;;;21.00;71.50;;;;;;5016350;28;20209;-90
2024/01/31 12:13:55;;;;;;;19.35;13.50;;;21.00;71.60;;;;;;5018669;28;20334;-89
2024/01/31 12:16:21;;;;;;;21.45;13.10;;;21.00;71.50;;;;;;5016250;28;20210;-88
2024/01/31 12:18:59;;;;;;;17.60;11.85;;;21.00;71.50;;;;;;5018230;28;20203;-93
2024/01/31 12:21:26;;;;;;;18.65;12.88;;;21.10;71.70;;;;;;5024009;28;20195;-92
2024/01/31 12:23:53;;;;;;;21.50;14.23;;;21.10;71.80;;;;;;5017515;28;20203;-93
2024/01/31 12:26:22;;;;;;;15.43;11.68;;;21.10;72.10;;;;;;5018016;28;20212;-91
2024/01/31 12:28:54;;;;;;;16.50;9.82;;;21.20;71.70;;;;;;5013834;28;20211;-90
2024/01/31 12:31:21;;;;;;;20.73;12.85;;;21.30;71.80;;;;;;5015441;28;20196;-89
2024/01/31 12:33:48;;;;;;;18.17;11.38;;;21.20;71.90;;;;;;5016037;28;20649;-83
2024/01/31 12:36:15;;;;;;;17.57;11.23;;;21.20;71.50;;;;;;5012839;28;20207;-88
2024/01/31 12:38:42;;;;;;;15.80;12.10;;;21.30;71.80;;;;;;5015806;28;20477;-87
2024/01/31 12:41:08;;;;;;;22.13;12.50;;;21.30;71.80;;;;;;5016357;28;20234;-89
2024/01/31 12:43:37;;;;;;;19.60;11.70;;;21.30;71.70;;;;;;5008799;28;20473;-88